»·PEaware :: N701GT KCRQ-KIFP

N701GT :: KCRQ-KIFP

FLIGHT INFORMATION

Flight Status: Arrived
Operator: Privately registered:
United States
More flights under this callsign
Pilot: Anonymous 17564 (17564)
Aircraft: CESSNA 310
(C310)
More flights by this aircraft type
Origin: KCRQ McClellan-Palomar
United States
Destination: KIFP Laughlin/Bullhead Intl
United States
More flights between these airports :: More routes between these airports
Route: +OCN V208 TNP V514 ZELMA V12 CLIPP
File this flight plan on PilotEdge
Remarks:
Altitude:
(Current/Filed)
15,000ft
Speed:
(Current/Filed)
180kts
Departed: 23-Jun-18 03:42 PM
Arrived: 23-Jun-18 05:00 PM
Distance/Time
Traveled:
182nm/1:17
Distance/Time
To Go:
Arrived

Flight Plot

Page will automatically refresh every two minutes.

Flight plan parsing failed; only flown route is shown


Map Options




Map Legend


Flown Route
Filed Route
Departure Airport
Arrival Airport
Navaid (VOR, NDB)
Fix

Horizontal Profiles

Position Reports

Time Latitude Longitude Heading Altitude Ground
Speed
23-Jun-18 15:04 33.126908 -117.276898 234 303ft 0kts
23-Jun-18 15:05 33.126908 -117.276898 234 303ft 0kts
23-Jun-18 15:06 33.126908 -117.276898 234 303ft 0kts
23-Jun-18 15:07 33.126908 -117.276898 234 303ft 0kts
23-Jun-18 15:08 33.126908 -117.276898 234 303ft 0kts
23-Jun-18 15:09 33.126908 -117.276898 234 303ft 0kts
23-Jun-18 15:10 33.126908 -117.276898 234 303ft 0kts
23-Jun-18 15:11 33.126908 -117.276898 234 303ft 0kts
23-Jun-18 15:12 33.126908 -117.276898 234 303ft 0kts
23-Jun-18 15:13 33.126908 -117.276898 234 303ft 0kts
23-Jun-18 15:14 33.126908 -117.276898 234 303ft 0kts
23-Jun-18 15:15 33.126908 -117.276898 234 303ft 0kts
23-Jun-18 15:16 33.126908 -117.276898 234 303ft 0kts
23-Jun-18 15:17 33.126908 -117.276898 234 303ft 0kts
23-Jun-18 15:18 33.126888 -117.276917 208 303ft 3kts
23-Jun-18 15:19 33.127198 -117.276639 353 303ft 0kts
23-Jun-18 15:20 33.127198 -117.276639 353 303ft 0kts
23-Jun-18 15:21 33.127198 -117.276639 353 303ft 0kts
23-Jun-18 15:22 33.127198 -117.276639 353 303ft 0kts
23-Jun-18 15:23 33.127198 -117.276639 353 303ft 0kts
23-Jun-18 15:24 33.127198 -117.276639 353 303ft 0kts
23-Jun-18 15:25 33.127198 -117.276639 353 303ft 0kts
23-Jun-18 15:26 33.127198 -117.276639 353 303ft 0kts
23-Jun-18 15:27 33.127198 -117.276639 353 303ft 0kts
23-Jun-18 15:28 33.127198 -117.276639 353 303ft 0kts
23-Jun-18 15:29 33.127198 -117.276639 353 303ft 0kts
23-Jun-18 15:30 33.127198 -117.276639 353 303ft 0kts
23-Jun-18 15:31 33.127198 -117.276639 353 303ft 0kts
23-Jun-18 15:32 33.127198 -117.276639 353 303ft 0kts
23-Jun-18 15:33 33.127198 -117.276639 353 303ft 0kts
23-Jun-18 15:34 33.127198 -117.276639 353 303ft 0kts
23-Jun-18 15:35 33.128556 -117.272859 76 303ft 14kts
23-Jun-18 15:36 33.128704 -117.272423 43 303ft 0kts
23-Jun-18 15:37 33.128704 -117.272423 43 303ft 0kts
23-Jun-18 15:38 33.128704 -117.272423 43 303ft 0kts
23-Jun-18 15:39 33.128704 -117.272423 43 303ft 0kts
23-Jun-18 15:40 33.128704 -117.272423 43 303ft 0kts
23-Jun-18 15:41 33.128704 -117.272423 43 303ft 0kts
23-Jun-18 15:42 33.129080 -117.274332 253 303ft 53kts
23-Jun-18 15:43 33.126218 -117.310978 261 1278ft 141kts
23-Jun-18 15:44 33.122897 -117.361773 262 2324ft 160kts
23-Jun-18 15:45 33.118802 -117.415130 273 3320ft 164kts
23-Jun-18 15:46 33.157805 -117.437229 354 4335ft 169kts
23-Jun-18 15:47 33.203971 -117.427316 14 5331ft 167kts
23-Jun-18 15:48 33.237008 -117.390775 41 6327ft 160kts
23-Jun-18 15:49 33.229997 -117.348524 104 7302ft 150kts
23-Jun-18 15:50 33.227416 -117.298622 97 8135ft 154kts
23-Jun-18 15:51 33.220848 -117.247587 100 8835ft 155kts
23-Jun-18 15:52 33.214601 -117.196759 99 9527ft 153kts
23-Jun-18 15:53 33.208680 -117.146941 99 10203ft 149kts
23-Jun-18 15:54 33.202925 -117.098817 99 10884ft 143kts
23-Jun-18 15:55 33.197432 -117.053170 100 11551ft 135kts
23-Jun-18 15:56 33.192155 -117.009503 100 12152ft 136kts
23-Jun-18 15:57 33.186369 -116.961166 99 12629ft 158kts
23-Jun-18 15:58 33.180048 -116.908733 99 13081ft 157kts
23-Jun-18 15:59 33.173758 -116.857166 99 13583ft 157kts
23-Jun-18 16:00 33.167545 -116.806141 99 14059ft 153kts
23-Jun-18 16:01 33.161348 -116.755443 99 14571ft 156kts
23-Jun-18 16:02 33.155136 -116.704830 99 14990ft 155kts
23-Jun-18 16:03 33.148311 -116.649202 99 14978ft 181kts
23-Jun-18 16:04 33.144130 -116.588097 68 14942ft 192kts
23-Jun-18 16:05 33.182567 -116.549836 33 14947ft 178kts
23-Jun-18 16:06 33.222838 -116.514528 33 15104ft 183kts
23-Jun-18 16:07 33.264755 -116.478042 33 15072ft 193kts
23-Jun-18 16:08 33.308442 -116.439993 33 14998ft 197kts
23-Jun-18 16:09 33.351320 -116.402592 33 14977ft 186kts
23-Jun-18 16:10 33.394089 -116.365288 34 14954ft 194kts
23-Jun-18 16:11 33.436562 -116.328171 34 14945ft 185kts
23-Jun-18 16:12 33.478648 -116.291347 34 14931ft 190kts
23-Jun-18 16:13 33.520498 -116.254654 34 14923ft 184kts
23-Jun-18 16:14 33.561663 -116.218542 34 14918ft 182kts
23-Jun-18 16:15 33.602508 -116.182694 34 14920ft 181kts
23-Jun-18 16:16 33.644126 -116.146856 31 14822ft 184kts
23-Jun-18 16:17 33.688154 -116.112026 31 14807ft 194kts
23-Jun-18 16:18 33.732726 -116.076344 30 14811ft 192kts
23-Jun-18 16:19 33.775552 -116.041912 30 14826ft 180kts
23-Jun-18 16:20 33.816619 -116.008884 30 14827ft 176kts
23-Jun-18 16:21 33.857877 -115.975656 30 14858ft 180kts
23-Jun-18 16:22 33.899371 -115.942222 30 14884ft 181kts
23-Jun-18 16:23 33.941472 -115.908209 30 14883ft 182kts
23-Jun-18 16:24 33.982699 -115.874886 30 14902ft 176kts
23-Jun-18 16:25 34.024270 -115.841257 30 14918ft 183kts
23-Jun-18 16:26 34.067222 -115.806458 30 14915ft 189kts
23-Jun-18 16:27 34.109571 -115.772058 31 14926ft 179kts
23-Jun-18 16:28 34.146429 -115.731597 39 14925ft 178kts
23-Jun-18 16:29 34.182896 -115.690632 39 14932ft 180kts
23-Jun-18 16:30 34.220138 -115.648746 40 14929ft 184kts
23-Jun-18 16:31 34.258436 -115.605621 40 14915ft 191kts
23-Jun-18 16:32 34.296154 -115.563060 40 14931ft 180kts
23-Jun-18 16:33 34.335911 -115.524553 15 14928ft 186kts
23-Jun-18 16:34 34.384272 -115.504130 16 14932ft 183kts
23-Jun-18 16:35 34.432720 -115.483144 16 14920ft 187kts
23-Jun-18 16:36 34.481200 -115.462027 16 15031ft 182kts
23-Jun-18 16:37 34.529474 -115.441018 16 15059ft 188kts
23-Jun-18 16:38 34.578782 -115.419502 16 15052ft 189kts
23-Jun-18 16:39 34.627687 -115.398090 16 15049ft 186kts
23-Jun-18 16:40 34.676441 -115.376773 16 15042ft 187kts
23-Jun-18 16:41 34.723984 -115.355917 15 15037ft 178kts
23-Jun-18 16:42 34.770791 -115.334295 30 15038ft 185kts
23-Jun-18 16:43 34.782242 -115.273218 91 14507ft 212kts
23-Jun-18 16:44 34.781085 -115.197753 91 13023ft 230kts
23-Jun-18 16:45 34.779720 -115.120556 92 11524ft 226kts
23-Jun-18 16:46 34.792076 -115.048713 47 10045ft 226kts
23-Jun-18 16:47 34.837005 -114.996864 43 9023ft 213kts
23-Jun-18 16:48 34.879304 -114.950122 42 9027ft 201kts
23-Jun-18 16:49 34.921801 -114.903176 43 9008ft 207kts
23-Jun-18 16:50 34.963925 -114.856819 42 9022ft 202kts
23-Jun-18 16:51 35.003571 -114.813292 43 8967ft 160kts
23-Jun-18 16:52 35.040459 -114.773127 43 9019ft 201kts
23-Jun-18 16:53 35.082537 -114.727077 42 9010ft 203kts
23-Jun-18 16:54 35.124875 -114.680921 42 8999ft 205kts
23-Jun-18 16:55 35.165832 -114.636221 43 7628ft 196kts
23-Jun-18 16:56 35.211743 -114.602348 8 5432ft 200kts
23-Jun-18 16:57 35.219672 -114.566087 167 3431ft 121kts
23-Jun-18 16:58 35.191512 -114.562109 175 1305ft 95kts
23-Jun-18 16:59 35.165315 -114.560166 181 656ft 80kts
23-Jun-18 17:00 35.155943 -114.559004 103 644ft 0kts
23-Jun-18 17:01 35.157394 -114.558222 356 644ft 7kts
23-Jun-18 17:02 35.159435 -114.557821 83 644ft 9kts
23-Jun-18 17:03 35.159660 -114.556341 264 644ft 0kts
23-Jun-18 17:04 35.159660 -114.556341 264 644ft 0kts
23-Jun-18 17:05 35.159660 -114.556341 264 644ft 0kts
23-Jun-18 17:06 35.159660 -114.556341 264 644ft 0kts
23-Jun-18 17:07 35.159660 -114.556341 264 644ft 0kts
23-Jun-18 17:08 35.159660 -114.556341 264 644ft 0kts
23-Jun-18 17:09 35.159660 -114.556341 264 644ft 0kts
23-Jun-18 17:10 35.159660 -114.556341 264 644ft 0kts
23-Jun-18 17:11 35.159660 -114.556341 264 644ft 0kts
23-Jun-18 17:12 35.159660 -114.556341 264 644ft 0kts
23-Jun-18 17:13 35.159660 -114.556341 264 644ft 0kts
23-Jun-18 17:14 35.159660 -114.556341 264 644ft 0kts

Navigation Log

Ident Type
Flight plan parsing failed, navigation log unavailable